Time;durP1;ratioP1;P1;durP2;ratioP2;P2;SDS_P1;SDS_P2;PMS_P1;PMS_P2;Temp;Humidity;BMP_temperature;BMP_pressure;BME280_temperature;BME280_humidity;BME280_pressure;Samples;Min_cycle;Max_cycle;Signal;HPM_P1;HPM_P2
2021/08/23 00:00:51;;;;;;;2.28;1.10;;;;;;;;;;5025478;28;20602;-75
2021/08/23 00:03:17;;;;;;;3.13;1.55;;;;;;;;;;5039102;28;20100;-75
2021/08/23 00:05:44;;;;;;;2.63;1.30;;;;;;;;;;5025323;28;20061;-75
2021/08/23 00:08:10;;;;;;;2.78;1.40;;;;;;;;;;5025878;28;20129;-74
2021/08/23 00:10:37;;;;;;;2.35;1.20;;;;;;;;;;5017437;28;21528;-74
2021/08/23 00:13:03;;;;;;;2.10;1.10;;;;;;;;;;5027145;28;20122;-74
2021/08/23 00:15:30;;;;;;;3.80;1.30;;;;;;;;;;5032741;28;20064;-74
2021/08/23 00:17:56;;;;;;;2.10;1.20;;;;;;;;;;5033805;28;20500;-74
2021/08/23 00:20:31;;;;;;;4.20;1.27;;;;;;;;;;5029965;28;20068;-74
2021/08/23 00:22:58;;;;;;;2.45;1.33;;;;;;;;;;5036831;28;20072;-74
2021/08/23 00:25:24;;;;;;;2.92;1.42;;;;;;;;;;5024734;28;20056;-75
2021/08/23 00:27:51;;;;;;;3.22;1.40;;;;;;;;;;5027534;28;20065;-73
2021/08/23 00:30:17;;;;;;;2.03;1.15;;;;;;;;;;5014095;28;20053;-73
2021/08/23 00:32:44;;;;;;;3.90;1.30;;;;;;;;;;5023864;28;20065;-75
2021/08/23 00:35:11;;;;;;;2.33;1.30;;;;;;;;;;5024548;28;20073;-74
2021/08/23 00:37:38;;;;;;;2.83;1.38;;;;;;;;;;5018978;28;21310;-73
2021/08/23 00:40:04;;;;;;;2.78;1.40;;;;;;;;;;5021490;28;20061;-74
2021/08/23 00:42:31;;;;;;;2.53;1.40;;;;;;;;;;5022126;28;20168;-74
2021/08/23 00:44:57;;;;;;;2.83;1.30;;;;;;;;;;5024667;28;20069;-75
2021/08/23 00:47:24;;;;;;;2.58;1.20;;;;;;;;;;5021960;28;20065;-75
2021/08/23 00:49:50;;;;;;;3.00;1.27;;;;;;;;;;5017158;28;20065;-74
2021/08/23 00:52:16;;;;;;;2.42;1.20;;;;;;;;;;5019807;28;20069;-73
2021/08/23 00:54:43;;;;;;;2.67;1.40;;;;;;;;;;5017938;28;20068;-73
2021/08/23 00:57:09;;;;;;;3.15;1.00;;;;;;;;;;5013046;28;20045;-74
2021/08/23 00:59:37;;;;;;;2.38;1.30;;;;;;;;;;5016651;28;20072;-74
2021/08/23 01:02:04;;;;;;;2.83;1.30;;;;;;;;;;5023308;28;20033;-74
2021/08/23 01:04:36;;;;;;;1.88;1.13;;;;;;;;;;5014763;28;20080;-74
2021/08/23 01:07:03;;;;;;;2.33;1.30;;;;;;;;;;5019958;28;20073;-73
2021/08/23 01:09:33;;;;;;;2.25;1.23;;;;;;;;;;5017965;28;20057;-73
2021/08/23 01:12:00;;;;;;;2.50;1.45;;;;;;;;;;5016032;28;20069;-74
2021/08/23 01:14:27;;;;;;;2.70;1.25;;;;;;;;;;5015793;28;20802;-74
2021/08/23 01:16:53;;;;;;;2.75;1.40;;;;;;;;;;5025969;28;20061;-74
2021/08/23 01:19:21;;;;;;;3.03;1.70;;;;;;;;;;5020299;28;20084;-74
2021/08/23 01:21:49;;;;;;;2.25;1.30;;;;;;;;;;5015302;28;20074;-75
2021/08/23 01:24:16;;;;;;;2.58;1.20;;;;;;;;;;5012925;28;20139;-75
2021/08/23 01:26:44;;;;;;;2.60;1.30;;;;;;;;;;5017291;28;20056;-73
2021/08/23 01:29:20;;;;;;;4.07;1.40;;;;;;;;;;5021297;28;20439;-74
2021/08/23 01:31:49;;;;;;;2.55;1.20;;;;;;;;;;4996939;28;22063;-75
2021/08/23 01:34:16;;;;;;;3.40;1.40;;;;;;;;;;4999070;28;20165;-73
2021/08/23 01:36:43;;;;;;;3.13;1.20;;;;;;;;;;5006235;28;20560;-74
2021/08/23 01:39:09;;;;;;;2.15;1.00;;;;;;;;;;5012426;28;20493;-74
2021/08/23 01:41:36;;;;;;;2.17;1.25;;;;;;;;;;5000784;28;20062;-74
2021/08/23 01:44:02;;;;;;;2.85;1.30;;;;;;;;;;4996104;28;20069;-75
2021/08/23 01:46:30;;;;;;;2.47;1.33;;;;;;;;;;5002880;28;20550;-74
2021/08/23 01:48:57;;;;;;;3.08;1.20;;;;;;;;;;4995260;28;20065;-74
2021/08/23 01:51:23;;;;;;;1.98;1.10;;;;;;;;;;5007617;28;20104;-73
2021/08/23 01:53:50;;;;;;;2.42;1.15;;;;;;;;;;4994633;28;20057;-74
2021/08/23 01:56:16;;;;;;;1.80;1.33;;;;;;;;;;5006339;28;20064;-74
2021/08/23 01:58:42;;;;;;;3.10;1.10;;;;;;;;;;5005281;28;20053;-74
2021/08/23 02:01:09;;;;;;;2.80;1.52;;;;;;;;;;5004272;28;20458;-74
2021/08/23 02:03:35;;;;;;;2.60;1.38;;;;;;;;;;5004041;28;20069;-75
2021/08/23 02:06:01;;;;;;;3.72;1.27;;;;;;;;;;4991160;28;20347;-74
2021/08/23 02:08:28;;;;;;;1.70;1.02;;;;;;;;;;5003959;28;20072;-74
2021/08/23 02:10:54;;;;;;;1.90;1.23;;;;;;;;;;4999201;28;20129;-74
2021/08/23 02:13:21;;;;;;;2.97;1.75;;;;;;;;;;4998022;28;20450;-75
2021/08/23 02:15:47;;;;;;;1.95;1.17;;;;;;;;;;5003047;28;20117;-74
2021/08/23 02:18:13;;;;;;;2.78;1.40;;;;;;;;;;4999770;28;20537;-74
2021/08/23 02:20:40;;;;;;;2.67;1.50;;;;;;;;;;5017808;28;20084;-75
2021/08/23 02:23:07;;;;;;;3.10;1.45;;;;;;;;;;5021813;28;20089;-74
2021/08/23 02:25:33;;;;;;;2.63;1.30;;;;;;;;;;5024595;28;20069;-74
2021/08/23 02:28:00;;;;;;;2.20;1.20;;;;;;;;;;5021569;28;20056;-76
2021/08/23 02:30:26;;;;;;;3.72;1.42;;;;;;;;;;5021498;28;20468;-75
2021/08/23 02:32:52;;;;;;;2.13;1.30;;;;;;;;;;5028766;28;20111;-75
2021/08/23 02:35:19;;;;;;;2.92;1.55;;;;;;;;;;5024737;28;20237;-74
2021/08/23 02:37:45;;;;;;;2.53;1.40;;;;;;;;;;5023255;28;20475;-74
2021/08/23 02:40:12;;;;;;;3.20;1.40;;;;;;;;;;5027512;28;20073;-75
2021/08/23 02:42:39;;;;;;;3.08;1.52;;;;;;;;;;5021473;28;20057;-74
2021/08/23 02:45:06;;;;;;;2.33;1.23;;;;;;;;;;5022921;28;20072;-74
2021/08/23 02:47:36;;;;;;;4.10;1.50;;;;;;;;;;5016029;28;20103;-74
2021/08/23 02:50:03;;;;;;;2.00;1.10;;;;;;;;;;5024172;28;20049;-75
2021/08/23 02:52:29;;;;;;;3.15;1.30;;;;;;;;;;5021261;28;20072;-74
2021/08/23 02:54:56;;;;;;;2.15;1.38;;;;;;;;;;5021662;28;20109;-74
2021/08/23 02:57:22;;;;;;;2.83;1.33;;;;;;;;;;5019565;28;20060;-74
2021/08/23 02:59:49;;;;;;;2.97;1.40;;;;;;;;;;5017476;28;20057;-73
2021/08/23 03:02:15;;;;;;;3.78;1.48;;;;;;;;;;5018308;28;20575;-74
2021/08/23 03:04:41;;;;;;;2.20;1.30;;;;;;;;;;5012429;28;20060;-74
2021/08/23 03:07:08;;;;;;;1.90;1.15;;;;;;;;;;5020585;28;20115;-75
2021/08/23 03:09:34;;;;;;;2.10;1.48;;;;;;;;;;5024236;28;20053;-75
2021/08/23 03:12:00;;;;;;;2.47;1.25;;;;;;;;;;5015903;28;20061;-75
2021/08/23 03:14:27;;;;;;;3.50;1.35;;;;;;;;;;5035059;28;20072;-76
2021/08/23 03:16:53;;;;;;;3.50;1.30;;;;;;;;;;5021948;28;20068;-73
2021/08/23 03:19:20;;;;;;;2.63;1.33;;;;;;;;;;5004487;28;20065;-76
2021/08/23 03:21:46;;;;;;;2.80;1.30;;;;;;;;;;5031612;28;20064;-74
2021/08/23 03:24:12;;;;;;;2.53;1.30;;;;;;;;;;5017086;28;20068;-76
2021/08/23 03:26:39;;;;;;;2.70;1.40;;;;;;;;;;5009320;28;20705;-75
2021/08/23 03:29:06;;;;;;;2.90;1.20;;;;;;;;;;5018730;28;20065;-75
2021/08/23 03:31:32;;;;;;;3.35;1.60;;;;;;;;;;5021816;28;20054;-74
2021/08/23 03:33:59;;;;;;;2.38;1.30;;;;;;;;;;5010169;28;20053;-73
2021/08/23 03:36:25;;;;;;;2.13;0.95;;;;;;;;;;5014533;28;20073;-74
2021/08/23 03:38:51;;;;;;;2.58;1.30;;;;;;;;;;5015057;28;20485;-74
2021/08/23 03:41:18;;;;;;;2.53;1.30;;;;;;;;;;5020736;28;20057;-75
2021/08/23 03:43:44;;;;;;;2.60;1.23;;;;;;;;;;5015614;28;20070;-74
2021/08/23 03:46:11;;;;;;;3.85;1.40;;;;;;;;;;5020163;28;20033;-74
2021/08/23 03:48:38;;;;;;;1.92;1.30;;;;;;;;;;5012398;28;21184;-74
2021/08/23 03:51:04;;;;;;;2.67;1.45;;;;;;;;;;5021493;28;20036;-74
2021/08/23 03:53:31;;;;;;;2.88;1.20;;;;;;;;;;5011765;28;20076;-75
2021/08/23 03:55:57;;;;;;;1.85;1.20;;;;;;;;;;5017935;28;20563;-74
2021/08/23 03:58:24;;;;;;;2.47;1.30;;;;;;;;;;5002076;28;20087;-75
2021/08/23 04:00:50;;;;;;;2.63;1.20;;;;;;;;;;5034434;28;20065;-77
2021/08/23 04:03:16;;;;;;;2.28;1.50;;;;;;;;;;5015465;28;20069;-75
2021/08/23 04:05:43;;;;;;;3.47;1.40;;;;;;;;;;5023569;28;20501;-75
2021/08/23 04:08:10;;;;;;;3.03;1.23;;;;;;;;;;5015721;28;20083;-74
2021/08/23 04:10:36;;;;;;;3.35;1.35;;;;;;;;;;5010170;28;20065;-75
2021/08/23 04:13:03;;;;;;;1.83;1.20;;;;;;;;;;5021308;28;20764;-75
2021/08/23 04:15:29;;;;;;;2.10;1.20;;;;;;;;;;5024532;28;20073;-74
2021/08/23 04:17:56;;;;;;;6.35;2.00;;;;;;;;;;5018069;28;20556;-74
2021/08/23 04:20:23;;;;;;;10.57;2.80;;;;;;;;;;5020795;28;20587;-75
2021/08/23 04:22:49;;;;;;;11.95;3.08;;;;;;;;;;5019052;28;20069;-74
2021/08/23 04:25:16;;;;;;;9.68;2.65;;;;;;;;;;5032078;28;20053;-74
2021/08/23 04:27:42;;;;;;;8.05;2.40;;;;;;;;;;5018948;28;20454;-74
2021/08/23 04:30:09;;;;;;;4.65;2.03;;;;;;;;;;5034313;28;20041;-77
2021/08/23 04:32:35;;;;;;;4.78;1.83;;;;;;;;;;5021366;28;20057;-74
2021/08/23 04:35:01;;;;;;;3.63;1.60;;;;;;;;;;5019499;28;20551;-76
2021/08/23 04:37:28;;;;;;;5.40;2.15;;;;;;;;;;5031443;28;20131;-75
2021/08/23 04:39:54;;;;;;;6.18;2.05;;;;;;;;;;5017522;28;20068;-75
2021/08/23 04:42:20;;;;;;;3.78;1.65;;;;;;;;;;5015853;28;20084;-75
2021/08/23 04:44:47;;;;;;;4.88;2.28;;;;;;;;;;5016570;28;20061;-75
2021/08/23 04:47:13;;;;;;;4.15;1.85;;;;;;;;;;5018781;28;20091;-75
2021/08/23 04:49:40;;;;;;;4.45;1.70;;;;;;;;;;5014339;28;20062;-73
2021/08/23 04:52:06;;;;;;;4.93;1.73;;;;;;;;;;5011770;28;20076;-74
2021/08/23 04:54:33;;;;;;;3.75;1.75;;;;;;;;;;5016049;28;20041;-75
2021/08/23 04:56:59;;;;;;;3.53;1.52;;;;;;;;;;5013871;28;20108;-74
2021/08/23 04:59:26;;;;;;;3.47;1.55;;;;;;;;;;5016407;28;20061;-74
2021/08/23 05:01:52;;;;;;;3.33;1.52;;;;;;;;;;5015594;28;20501;-75
2021/08/23 05:04:18;;;;;;;4.90;1.63;;;;;;;;;;5015204;28;20069;-75
2021/08/23 05:06:45;;;;;;;5.13;1.75;;;;;;;;;;5013934;28;20095;-75
2021/08/23 05:09:11;;;;;;;3.47;1.50;;;;;;;;;;5030953;28;20053;-75
2021/08/23 05:11:38;;;;;;;4.32;1.50;;;;;;;;;;5019767;28;20666;-76
2021/08/23 05:14:04;;;;;;;2.78;1.20;;;;;;;;;;5022981;28;20148;-74
2021/08/23 05:16:31;;;;;;;4.03;1.10;;;;;;;;;;5021231;28;20061;-75
2021/08/23 05:18:57;;;;;;;1.42;0.90;;;;;;;;;;5022786;28;20508;-76
2021/08/23 05:21:23;;;;;;;3.83;1.20;;;;;;;;;;5013161;28;20798;-75
2021/08/23 05:23:50;;;;;;;4.60;1.23;;;;;;;;;;5012637;28;20065;-76
2021/08/23 05:26:16;;;;;;;4.55;1.25;;;;;;;;;;5018228;28;20064;-75
2021/08/23 05:28:43;;;;;;;3.40;1.25;;;;;;;;;;5019910;28;20548;-75
2021/08/23 05:31:09;;;;;;;3.38;1.17;;;;;;;;;;5022365;28;20517;-75
2021/08/23 05:33:35;;;;;;;2.90;1.30;;;;;;;;;;5013559;28;20806;-74
2021/08/23 05:36:02;;;;;;;3.03;1.30;;;;;;;;;;5014218;28;20069;-74
2021/08/23 05:38:30;;;;;;;3.30;1.42;;;;;;;;;;5022775;28;20069;-74
2021/08/23 05:40:56;;;;;;;2.45;1.30;;;;;;;;;;5018940;28;20066;-74
2021/08/23 05:43:23;;;;;;;3.03;1.40;;;;;;;;;;5011937;28;20073;-75
2021/08/23 05:45:49;;;;;;;2.58;1.40;;;;;;;;;;5011727;28;20076;-75
2021/08/23 05:48:16;;;;;;;2.78;1.30;;;;;;;;;;5019112;28;20168;-75
2021/08/23 05:50:43;;;;;;;2.33;1.30;;;;;;;;;;5014445;28;20060;-74
2021/08/23 05:53:09;;;;;;;3.30;1.40;;;;;;;;;;5021081;28;20155;-74
2021/08/23 05:55:35;;;;;;;4.03;1.20;;;;;;;;;;5010866;28;20080;-75
2021/08/23 05:58:02;;;;;;;3.13;1.40;;;;;;;;;;5014253;28;20564;-75
2021/08/23 06:00:28;;;;;;;4.68;1.13;;;;;;;;;;5011579;28;20077;-75
2021/08/23 06:02:56;;;;;;;2.40;1.30;;;;;;;;;;5016667;28;20077;-73
2021/08/23 06:05:23;;;;;;;3.05;1.15;;;;;;;;;;5021372;28;20058;-74
2021/08/23 06:07:49;;;;;;;3.83;1.23;;;;;;;;;;5020174;28;20115;-75
2021/08/23 06:10:15;;;;;;;3.83;1.20;;;;;;;;;;5006703;28;20061;-74
2021/08/23 06:12:42;;;;;;;2.88;1.40;;;;;;;;;;5021708;28;20091;-75
2021/08/23 06:15:08;;;;;;;2.67;1.23;;;;;;;;;;5028333;28;20057;-75
2021/08/23 06:17:35;;;;;;;3.17;1.15;;;;;;;;;;5021704;28;20064;-75
2021/08/23 06:20:01;;;;;;;2.88;1.40;;;;;;;;;;5019405;28;20056;-75
2021/08/23 06:22:28;;;;;;;2.15;1.30;;;;;;;;;;5013222;28;20073;-75
2021/08/23 06:24:54;;;;;;;2.30;1.20;;;;;;;;;;5019576;28;20061;-75
2021/08/23 06:27:22;;;;;;;2.97;1.10;;;;;;;;;;5009643;28;20694;-75
2021/08/23 06:29:48;;;;;;;3.30;1.25;;;;;;;;;;5014309;28;20073;-75
2021/08/23 06:32:14;;;;;;;3.72;1.40;;;;;;;;;;5013357;28;20469;-75
2021/08/23 06:34:41;;;;;;;2.80;1.13;;;;;;;;;;5011189;28;20143;-75
2021/08/23 06:37:08;;;;;;;2.55;1.40;;;;;;;;;;5021052;28;20426;-76
2021/08/23 06:39:34;;;;;;;2.53;1.23;;;;;;;;;;5009554;28;20120;-75
2021/08/23 06:42:00;;;;;;;2.00;1.13;;;;;;;;;;5012380;28;20565;-74
2021/08/23 06:44:27;;;;;;;2.40;1.20;;;;;;;;;;5019603;28;20065;-75
2021/08/23 06:46:53;;;;;;;3.50;1.20;;;;;;;;;;5024196;28;20501;-75
2021/08/23 06:49:20;;;;;;;1.83;1.10;;;;;;;;;;5013778;28;20463;-75
2021/08/23 06:51:46;;;;;;;3.40;1.38;;;;;;;;;;5026238;28;20485;-75
2021/08/23 06:54:13;;;;;;;3.42;1.42;;;;;;;;;;5023213;28;20160;-76
2021/08/23 06:56:41;;;;;;;3.55;1.20;;;;;;;;;;5028694;28;20316;-75
2021/08/23 06:59:08;;;;;;;2.72;1.30;;;;;;;;;;5013340;28;20492;-75
2021/08/23 07:01:34;;;;;;;4.03;1.48;;;;;;;;;;5016257;28;20069;-74
2021/08/23 07:04:01;;;;;;;1.70;1.00;;;;;;;;;;5021916;28;20083;-75
2021/08/23 07:06:28;;;;;;;2.45;1.23;;;;;;;;;;5018412;28;20156;-75
2021/08/23 07:08:54;;;;;;;3.90;1.00;;;;;;;;;;5013730;28;20084;-74
2021/08/23 07:11:20;;;;;;;2.22;1.10;;;;;;;;;;5020612;28;20064;-75
2021/08/23 07:13:47;;;;;;;2.70;1.20;;;;;;;;;;5018609;28;20068;-74
2021/08/23 07:16:13;;;;;;;1.88;1.08;;;;;;;;;;5012587;28;20053;-74
2021/08/23 07:18:40;;;;;;;2.33;1.40;;;;;;;;;;5017752;28;20110;-74
2021/08/23 07:21:06;;;;;;;4.57;1.40;;;;;;;;;;5015358;28;20091;-75
2021/08/23 07:23:32;;;;;;;3.60;1.35;;;;;;;;;;5015839;28;20499;-74
2021/08/23 07:25:59;;;;;;;2.53;1.30;;;;;;;;;;5021899;28;20068;-74
2021/08/23 07:28:25;;;;;;;2.30;1.10;;;;;;;;;;5023058;28;20072;-73
2021/08/23 07:30:52;;;;;;;2.33;1.23;;;;;;;;;;5021854;28;20066;-75
2021/08/23 07:33:18;;;;;;;3.28;1.23;;;;;;;;;;5017250;28;20111;-75
2021/08/23 07:35:45;;;;;;;1.80;1.00;;;;;;;;;;5012762;28;20127;-74
2021/08/23 07:38:11;;;;;;;3.17;1.30;;;;;;;;;;5022700;28;20488;-74
2021/08/23 07:40:38;;;;;;;2.17;1.10;;;;;;;;;;5019506;28;20081;-74
2021/08/23 07:43:05;;;;;;;2.50;1.20;;;;;;;;;;5019688;28;20501;-75
2021/08/23 07:45:31;;;;;;;2.00;1.10;;;;;;;;;;5020439;28;20073;-75
2021/08/23 07:47:57;;;;;;;1.80;1.10;;;;;;;;;;5027360;28;22445;-75
2021/08/23 07:50:24;;;;;;;1.75;1.00;;;;;;;;;;5031907;28;20064;-73
2021/08/23 07:52:50;;;;;;;3.67;1.20;;;;;;;;;;5018730;28;20049;-74
2021/08/23 07:55:17;;;;;;;2.35;1.10;;;;;;;;;;5022140;28;20069;-76
2021/08/23 07:57:44;;;;;;;2.08;1.08;;;;;;;;;;5016254;28;20494;-75
2021/08/23 08:00:11;;;;;;;1.83;1.00;;;;;;;;;;5018486;28;20121;-75
2021/08/23 08:02:38;;;;;;;3.55;1.45;;;;;;;;;;5020500;28;20493;-74
2021/08/23 08:05:04;;;;;;;2.20;1.23;;;;;;;;;;5016029;28;20069;-74
2021/08/23 08:07:31;;;;;;;4.13;1.60;;;;;;;;;;5030965;28;20058;-75
2021/08/23 08:09:58;;;;;;;3.38;1.30;;;;;;;;;;5037507;28;20057;-75
2021/08/23 08:12:24;;;;;;;1.70;1.10;;;;;;;;;;5034041;28;20064;-75
2021/08/23 08:14:54;;;;;;;2.50;1.30;;;;;;;;;;5024967;28;20680;-74
2021/08/23 08:17:21;;;;;;;2.30;1.17;;;;;;;;;;5021405;28;20063;-74
2021/08/23 08:19:47;;;;;;;4.03;1.48;;;;;;;;;;5021151;28;20064;-73
2021/08/23 08:22:15;;;;;;;3.15;0.90;;;;;;;;;;5015719;28;20501;-74
2021/08/23 08:24:42;;;;;;;2.88;1.30;;;;;;;;;;5012106;28;20820;-75
2021/08/23 08:27:08;;;;;;;2.08;1.10;;;;;;;;;;5021327;28;20072;-75
2021/08/23 08:29:35;;;;;;;4.15;1.27;;;;;;;;;;5019269;28;20465;-74
2021/08/23 08:32:01;;;;;;;3.05;1.02;;;;;;;;;;5018562;28;20110;-75
2021/08/23 08:34:28;;;;;;;2.30;1.20;;;;;;;;;;5019115;28;20069;-75
2021/08/23 08:36:55;;;;;;;1.88;1.02;;;;;;;;;;5027112;28;20080;-74
2021/08/23 08:39:22;;;;;;;3.17;1.15;;;;;;;;;;5030992;28;20065;-75
2021/08/23 08:41:48;;;;;;;2.50;1.25;;;;;;;;;;5023945;28;20066;-75
2021/08/23 08:44:14;;;;;;;2.83;1.10;;;;;;;;;;5025043;28;20048;-74
2021/08/23 08:46:41;;;;;;;2.67;1.20;;;;;;;;;;5023972;28;20053;-75
2021/08/23 08:49:10;;;;;;;2.15;1.27;;;;;;;;;;5027495;28;20064;-75
2021/08/23 08:51:38;;;;;;;2.30;1.13;;;;;;;;;;5030637;28;20053;-74
2021/08/23 08:54:05;;;;;;;2.28;1.20;;;;;;;;;;5035190;28;20077;-74
2021/08/23 08:56:32;;;;;;;2.25;1.40;;;;;;;;;;5016833;28;20065;-74
2021/08/23 08:58:58;;;;;;;1.50;1.00;;;;;;;;;;5020395;28;20210;-76
2021/08/23 09:01:25;;;;;;;2.22;1.00;;;;;;;;;;5013338;28;20053;-74
2021/08/23 09:03:51;;;;;;;2.00;1.00;;;;;;;;;;5009052;28;20123;-75
2021/08/23 09:06:18;;;;;;;1.80;1.05;;;;;;;;;;5023158;28;20056;-75
2021/08/23 09:08:49;;;;;;;1.83;0.85;;;;;;;;;;5026658;28;20057;-74
2021/08/23 09:11:17;;;;;;;2.03;1.13;;;;;;;;;;5017291;28;20123;-75
2021/08/23 09:13:59;;;;;;;1.48;0.98;;;;;;;;;;5019834;28;20041;-75
2021/08/23 09:16:27;;;;;;;3.65;1.02;;;;;;;;;;5017830;28;20507;-75
2021/08/23 09:18:53;;;;;;;2.15;1.08;;;;;;;;;;5024266;28;20065;-74
2021/08/23 09:21:28;;;;;;;2.47;1.02;;;;;;;;;;5026645;28;20069;-77
2021/08/23 09:23:57;;;;;;;2.13;0.98;;;;;;;;;;5013215;28;20061;-75
2021/08/23 09:26:24;;;;;;;2.17;1.20;;;;;;;;;;5013216;28;20066;-74
2021/08/23 09:29:03;;;;;;;1.92;1.00;;;;;;;;;;5016322;28;20041;-73
2021/08/23 09:31:33;;;;;;;2.70;0.90;;;;;;;;;;5008976;28;20084;-75
2021/08/23 09:34:00;;;;;;;1.70;1.10;;;;;;;;;;5013388;28;20056;-75
2021/08/23 09:36:28;;;;;;;1.73;1.10;;;;;;;;;;5011177;28;20483;-75
2021/08/23 09:38:58;;;;;;;1.55;0.90;;;;;;;;;;5012832;28;20196;-73
2021/08/23 09:41:25;;;;;;;2.20;1.10;;;;;;;;;;5013464;28;20069;-75
2021/08/23 09:44:01;;;;;;;1.90;1.10;;;;;;;;;;5015544;28;20065;-74
2021/08/23 09:46:28;;;;;;;2.35;1.10;;;;;;;;;;5013700;28;20062;-75
2021/08/23 09:48:55;;;;;;;1.50;1.02;;;;;;;;;;5013635;28;20147;-75
2021/08/23 09:51:29;;;;;;;2.53;1.00;;;;;;;;;;5013829;28;20068;-75
2021/08/23 09:54:24;;;;;;;4.65;1.25;;;;;;;;;;5019326;28;20552;-76
2021/08/23 09:56:55;;;;;;;4.18;1.05;;;;;;;;;;5011749;28;21362;-75
2021/08/23 09:59:22;;;;;;;3.03;1.13;;;;;;;;;;5032198;28;20107;-75
2021/08/23 10:01:53;;;;;;;3.42;1.08;;;;;;;;;;5032171;28;20033;-75
2021/08/23 10:04:20;;;;;;;3.42;1.13;;;;;;;;;;5010811;28;20073;-75
2021/08/23 10:06:48;;;;;;;1.60;0.98;;;;;;;;;;5018915;28;20068;-75
2021/08/23 10:09:19;;;;;;;1.77;0.95;;;;;;;;;;5015547;28;20568;-75
2021/08/23 10:11:45;;;;;;;3.13;1.00;;;;;;;;;;5014688;28;20069;-74
2021/08/23 10:14:12;;;;;;;2.33;1.00;;;;;;;;;;5023279;28;20057;-74
2021/08/23 10:16:38;;;;;;;2.67;1.08;;;;;;;;;;5023378;28;20661;-75
2021/08/23 10:19:05;;;;;;;2.60;1.20;;;;;;;;;;5029740;28;20094;-76
2021/08/23 10:21:32;;;;;;;1.50;0.90;;;;;;;;;;5031349;28;20201;-75
2021/08/23 10:23:59;;;;;;;3.10;1.30;;;;;;;;;;5012236;28;20155;-76
2021/08/23 10:26:26;;;;;;;2.38;1.15;;;;;;;;;;5009814;28;20508;-76
2021/08/23 10:28:52;;;;;;;1.52;1.05;;;;;;;;;;5020135;28;20762;-75
2021/08/23 10:31:20;;;;;;;1.83;0.90;;;;;;;;;;5014255;28;20061;-74
2021/08/23 10:33:47;;;;;;;1.67;1.00;;;;;;;;;;5028449;28;20061;-75
2021/08/23 10:36:18;;;;;;;2.53;1.10;;;;;;;;;;5010110;28;20041;-76
2021/08/23 10:38:46;;;;;;;2.63;0.95;;;;;;;;;;5020054;28;21374;-75
2021/08/23 10:41:17;;;;;;;1.65;0.90;;;;;;;;;;5028117;28;20045;-74
2021/08/23 10:43:48;;;;;;;3.15;1.10;;;;;;;;;;5010021;28;21086;-75
2021/08/23 10:46:21;;;;;;;3.45;1.08;;;;;;;;;;5028407;28;20623;-75
2021/08/23 10:48:48;;;;;;;1.63;1.00;;;;;;;;;;5011048;28;22225;-75
2021/08/23 10:51:25;;;;;;;2.67;0.95;;;;;;;;;;5018534;28;20065;-74
2021/08/23 10:53:52;;;;;;;3.17;1.20;;;;;;;;;;5009324;28;22330;-75
2021/08/23 10:56:19;;;;;;;1.83;1.08;;;;;;;;;;5012813;28;20061;-75
2021/08/23 10:58:49;;;;;;;2.95;1.20;;;;;;;;;;5009472;28;20066;-75
2021/08/23 11:01:27;;;;;;;1.70;0.95;;;;;;;;;;5010379;28;20053;-75
2021/08/23 11:04:03;;;;;;;1.85;1.10;;;;;;;;;;5011287;28;20131;-75
2021/08/23 11:06:29;;;;;;;2.55;1.10;;;;;;;;;;5016057;28;20068;-74
2021/08/23 11:09:24;;;;;;;2.10;1.15;;;;;;;;;;5013789;28;20224;-75
2021/08/23 11:11:51;;;;;;;2.17;1.15;;;;;;;;;;5013589;28;20358;-75
2021/08/23 11:14:21;;;;;;;1.90;1.13;;;;;;;;;;5020451;28;20140;-75
2021/08/23 11:16:52;;;;;;;1.98;1.20;;;;;;;;;;5015146;28;20581;-75
2021/08/23 11:19:20;;;;;;;2.22;1.27;;;;;;;;;;5009330;28;20118;-75
2021/08/23 11:21:54;;;;;;;2.28;1.08;;;;;;;;;;5016553;28;20608;-76
2021/08/23 11:24:21;;;;;;;2.33;1.17;;;;;;;;;;5011327;28;20073;-76
2021/08/23 11:27:01;;;;;;;2.75;1.13;;;;;;;;;;5016908;28;20128;-75
2021/08/23 11:29:38;;;;;;;2.78;1.20;;;;;;;;;;5024002;28;20509;-75
2021/08/23 11:32:09;;;;;;;4.47;1.20;;;;;;;;;;5020590;28;20504;-74
2021/08/23 11:34:36;;;;;;;2.75;1.10;;;;;;;;;;5021804;28;20490;-73
2021/08/23 11:37:04;;;;;;;2.38;1.10;;;;;;;;;;5018282;28;20128;-73
2021/08/23 11:39:34;;;;;;;1.33;0.82;;;;;;;;;;5027120;28;20774;-72
2021/08/23 11:42:05;;;;;;;4.18;1.50;;;;;;;;;;5026245;28;20571;-73
2021/08/23 11:44:31;;;;;;;2.63;1.10;;;;;;;;;;5033104;28;20080;-73
2021/08/23 11:46:59;;;;;;;1.73;0.98;;;;;;;;;;5024609;28;20482;-72
2021/08/23 11:49:32;;;;;;;2.35;1.25;;;;;;;;;;5018709;28;20093;-74
2021/08/23 11:52:10;;;;;;;2.85;1.05;;;;;;;;;;5012249;28;20057;-74
2021/08/23 11:54:36;;;;;;;2.20;1.08;;;;;;;;;;5011390;28;20052;-74
2021/08/23 11:57:06;;;;;;;3.28;1.25;;;;;;;;;;5011972;28;20089;-73
2021/08/23 11:59:32;;;;;;;2.40;1.10;;;;;;;;;;5017923;28;20062;-73
2021/08/23 12:02:14;;;;;;;2.58;1.10;;;;;;;;;;5015303;28;20119;-72
2021/08/23 12:04:41;;;;;;;2.20;0.95;;;;;;;;;;5000283;28;20466;-72
2021/08/23 12:07:07;;;;;;;2.17;1.02;;;;;;;;;;4992612;28;20679;-73
2021/08/23 12:09:34;;;;;;;1.70;1.00;;;;;;;;;;4998018;28;20065;-72
2021/08/23 12:12:01;;;;;;;2.53;0.90;;;;;;;;;;4994120;28;20034;-73
2021/08/23 12:14:30;;;;;;;1.85;0.98;;;;;;;;;;5007462;28;20065;-73
2021/08/23 12:16:56;;;;;;;2.70;1.50;;;;;;;;;;5003348;28;20406;-73
2021/08/23 12:19:23;;;;;;;2.45;1.00;;;;;;;;;;4995342;28;20575;-72
2021/08/23 12:21:50;;;;;;;2.22;0.90;;;;;;;;;;5001871;28;20054;-73
2021/08/23 12:24:17;;;;;;;1.85;1.00;;;;;;;;;;4994835;28;20129;-73
2021/08/23 12:26:51;;;;;;;1.88;1.00;;;;;;;;;;4993049;28;20058;-73
2021/08/23 12:29:19;;;;;;;1.88;1.00;;;;;;;;;;4997598;28;20066;-74
2021/08/23 12:31:54;;;;;;;2.05;1.00;;;;;;;;;;5001731;28;20116;-73
2021/08/23 12:34:22;;;;;;;2.90;1.08;;;;;;;;;;4991100;28;20062;-71
2021/08/23 12:36:48;;;;;;;2.17;0.90;;;;;;;;;;5000576;28;20080;-73
2021/08/23 12:39:15;;;;;;;2.65;1.10;;;;;;;;;;4999995;28;20061;-73
2021/08/23 12:41:43;;;;;;;1.70;1.13;;;;;;;;;;4991603;28;20107;-73
2021/08/23 12:44:09;;;;;;;2.95;1.33;;;;;;;;;;5003645;28;20524;-73
2021/08/23 12:46:36;;;;;;;3.00;1.42;;;;;;;;;;5006942;28;20133;-73
2021/08/23 12:49:02;;;;;;;3.25;1.17;;;;;;;;;;5006704;28;20075;-74
2021/08/23 12:51:29;;;;;;;3.47;1.10;;;;;;;;;;5026751;28;20126;-75
2021/08/23 12:53:56;;;;;;;2.17;1.02;;;;;;;;;;5018739;28;20056;-75
2021/08/23 12:56:23;;;;;;;3.35;1.10;;;;;;;;;;5015645;28;20057;-75
2021/08/23 12:58:49;;;;;;;2.38;1.30;;;;;;;;;;5023215;28;20053;-75
2021/08/23 13:01:16;;;;;;;6.65;1.42;;;;;;;;;;5027593;28;20087;-79
2021/08/23 13:03:43;;;;;;;3.75;1.80;;;;;;;;;;5017444;28;20072;-76
2021/08/23 13:06:09;;;;;;;7.22;1.10;;;;;;;;;;5020691;28;20072;-75
2021/08/23 13:08:35;;;;;;;7.72;1.50;;;;;;;;;;5021804;28;20418;-76
2021/08/23 13:11:02;;;;;;;3.08;1.50;;;;;;;;;;5031711;28;20069;-76
2021/08/23 13:13:28;;;;;;;2.90;1.35;;;;;;;;;;5022656;28;20080;-75
2021/08/23 13:15:55;;;;;;;3.15;1.23;;;;;;;;;;5020992;28;20100;-76
2021/08/23 13:18:21;;;;;;;2.85;1.35;;;;;;;;;;5021470;28;20064;-76
2021/08/23 13:20:47;;;;;;;4.43;1.50;;;;;;;;;;5026979;28;20072;-76
2021/08/23 13:23:14;;;;;;;3.28;1.67;;;;;;;;;;5025187;28;20049;-74
2021/08/23 13:25:41;;;;;;;3.72;1.70;;;;;;;;;;5025609;28;20595;-77
2021/08/23 13:28:08;;;;;;;2.75;1.35;;;;;;;;;;5020011;28;20501;-74
2021/08/23 13:30:35;;;;;;;3.03;1.60;;;;;;;;;;5014122;28;20049;-77
2021/08/23 13:33:04;;;;;;;3.72;1.50;;;;;;;;;;5026873;28;20115;-75
2021/08/23 13:35:34;;;;;;;3.20;1.48;;;;;;;;;;5024399;28;20077;-76
2021/08/23 13:38:02;;;;;;;5.75;1.60;;;;;;;;;;5020573;28;20559;-77
2021/08/23 13:40:35;;;;;;;2.80;1.40;;;;;;;;;;5007276;28;20053;-76
2021/08/23 13:43:02;;;;;;;2.63;1.52;;;;;;;;;;5031499;28;20103;-76
2021/08/23 13:45:29;;;;;;;4.55;1.80;;;;;;;;;;5027545;28;20092;-78
2021/08/23 13:47:55;;;;;;;3.50;1.80;;;;;;;;;;5023834;28;20114;-76
2021/08/23 13:50:22;;;;;;;4.35;1.65;;;;;;;;;;5015908;28;20057;-75
2021/08/23 13:52:48;;;;;;;3.10;1.58;;;;;;;;;;5022037;28;20069;-76
2021/08/23 13:55:14;;;;;;;4.05;1.50;;;;;;;;;;5020219;28;20495;-75
2021/08/23 13:57:41;;;;;;;4.07;1.73;;;;;;;;;;5023622;28;21405;-76
2021/08/23 14:00:08;;;;;;;2.85;1.30;;;;;;;;;;5030458;28;20061;-76
2021/08/23 14:02:34;;;;;;;5.40;1.80;;;;;;;;;;5015062;28;20519;-76
2021/08/23 14:05:00;;;;;;;3.08;1.63;;;;;;;;;;5018581;28;20060;-74
2021/08/23 14:07:27;;;;;;;2.90;1.52;;;;;;;;;;5017059;28;20065;-76
2021/08/23 14:09:53;;;;;;;4.03;1.85;;;;;;;;;;5014550;28;20065;-76
2021/08/23 14:12:20;;;;;;;3.45;1.77;;;;;;;;;;5018269;28;20696;-75
2021/08/23 14:14:46;;;;;;;4.50;1.95;;;;;;;;;;5029572;28;20059;-76
2021/08/23 14:17:12;;;;;;;4.53;2.30;;;;;;;;;;5025499;28;20119;-76
2021/08/23 14:19:39;;;;;;;2.85;1.60;;;;;;;;;;5014041;28;20133;-76
2021/08/23 14:22:06;;;;;;;4.90;1.67;;;;;;;;;;5020586;28;20057;-75
2021/08/23 14:24:32;;;;;;;3.42;1.55;;;;;;;;;;5016630;28;20065;-75
2021/08/23 14:26:59;;;;;;;3.15;1.48;;;;;;;;;;5023974;28;20576;-76
2021/08/23 14:29:25;;;;;;;3.67;1.75;;;;;;;;;;5031940;28;20075;-76
2021/08/23 14:31:51;;;;;;;4.57;1.80;;;;;;;;;;5018174;28;20080;-75
2021/08/23 14:34:18;;;;;;;2.65;1.65;;;;;;;;;;5022756;28;20175;-77
2021/08/23 14:36:44;;;;;;;3.38;1.65;;;;;;;;;;5017381;28;20071;-75
2021/08/23 14:39:11;;;;;;;3.92;1.60;;;;;;;;;;5022122;28;20448;-76
2021/08/23 14:41:37;;;;;;;2.78;1.52;;;;;;;;;;5020039;28;20057;-76
2021/08/23 14:44:04;;;;;;;4.15;1.83;;;;;;;;;;5033446;28;20073;-77